Terminal Aerodrome Forecast
Issued by NWS St Louis, MO

Home | Current Version | Previous Version | Text Only | Print | Product List | Glossary On
Versions: 1 2 3 4 5 6 7 8 9 10 11 12 13 14 15 16 17 18 19 20 21 22 23 24 25 26 27 28 29
000
FTUS43 KLSX 281130
TAFCOU
TAF
KCOU 281130Z 2812/2912 VRB03KT 5SM BR OVC007
     FM281900 08005KT P6SM OVC012
     FM290300 08008KT P6SM OVC025
     FM291000 08010KT P6SM VCSH OVC015=

USA.gov is the U.S. government's official web portal to all federal, state and local government web resources and services.